sensor_id;sensor_type;location;lat;lon;timestamp;P1;durP1;ratioP1;P2;durP2;ratioP2
3949;SDS011;53057;50.988;6.314;2023-08-01T00:01:31;0.70;;;0.50;;
3949;SDS011;53057;50.988;6.314;2023-08-01T00:03:58;0.80;;;0.60;;
3949;SDS011;53057;50.988;6.314;2023-08-01T00:06:25;2.00;;;0.60;;
3949;SDS011;53057;50.988;6.314;2023-08-01T00:08:52;1.00;;;0.60;;
3949;SDS011;53057;50.988;6.314;2023-08-01T00:11:18;2.60;;;0.63;;
3949;SDS011;53057;50.988;6.314;2023-08-01T00:13:45;1.23;;;0.60;;
3949;SDS011;53057;50.988;6.314;2023-08-01T00:16:12;4.70;;;1.00;;
3949;SDS011;53057;50.988;6.314;2023-08-01T00:18:39;1.20;;;0.60;;
3949;SDS011;53057;50.988;6.314;2023-08-01T00:21:05;8.63;;;0.90;;
3949;SDS011;53057;50.988;6.314;2023-08-01T00:23:37;0.70;;;0.50;;
3949;SDS011;53057;50.988;6.314;2023-08-01T00:26:04;3.33;;;0.80;;
3949;SDS011;53057;50.988;6.314;2023-08-01T00:28:31;0.90;;;0.70;;
3949;SDS011;53057;50.988;6.314;2023-08-01T00:31:05;1.20;;;0.97;;
3949;SDS011;53057;50.988;6.314;2023-08-01T00:33:32;4.20;;;0.87;;
3949;SDS011;53057;50.988;6.314;2023-08-01T00:35:59;0.90;;;0.70;;
3949;SDS011;53057;50.988;6.314;2023-08-01T00:38:26;0.80;;;0.67;;
3949;SDS011;53057;50.988;6.314;2023-08-01T00:40:53;4.23;;;0.90;;
3949;SDS011;53057;50.988;6.314;2023-08-01T00:43:19;1.00;;;0.70;;
3949;SDS011;53057;50.988;6.314;2023-08-01T00:45:46;1.23;;;0.70;;
3949;SDS011;53057;50.988;6.314;2023-08-01T00:48:13;1.00;;;0.63;;
3949;SDS011;53057;50.988;6.314;2023-08-01T00:50:40;1.30;;;0.80;;
3949;SDS011;53057;50.988;6.314;2023-08-01T00:53:07;0.83;;;0.60;;
3949;SDS011;53057;50.988;6.314;2023-08-01T00:55:34;2.03;;;0.73;;
3949;SDS011;53057;50.988;6.314;2023-08-01T00:58:01;1.30;;;0.63;;
3949;SDS011;53057;50.988;6.314;2023-08-01T01:00:28;0.90;;;0.70;;
3949;SDS011;53057;50.988;6.314;2023-08-01T01:02:55;1.20;;;0.70;;
3949;SDS011;53057;50.988;6.314;2023-08-01T01:05:22;2.60;;;0.70;;
3949;SDS011;53057;50.988;6.314;2023-08-01T01:07:50;1.97;;;1.10;;
3949;SDS011;53057;50.988;6.314;2023-08-01T01:10:22;0.93;;;0.83;;
3949;SDS011;53057;50.988;6.314;2023-08-01T01:12:50;1.50;;;1.03;;
3949;SDS011;53057;50.988;6.314;2023-08-01T01:15:18;1.50;;;1.40;;
3949;SDS011;53057;50.988;6.314;2023-08-01T01:17:45;3.60;;;1.70;;
3949;SDS011;53057;50.988;6.314;2023-08-01T01:20:19;3.97;;;1.37;;
3949;SDS011;53057;50.988;6.314;2023-08-01T01:22:48;1.33;;;1.20;;
3949;SDS011;53057;50.988;6.314;2023-08-01T01:25:17;2.30;;;1.67;;
3949;SDS011;53057;50.988;6.314;2023-08-01T01:27:44;2.23;;;1.70;;
3949;SDS011;53057;50.988;6.314;2023-08-01T01:30:15;3.23;;;1.50;;
3949;SDS011;53057;50.988;6.314;2023-08-01T01:32:44;2.33;;;1.70;;
3949;SDS011;53057;50.988;6.314;2023-08-01T01:35:11;3.87;;;1.50;;
3949;SDS011;53057;50.988;6.314;2023-08-01T01:37:38;5.43;;;1.80;;
3949;SDS011;53057;50.988;6.314;2023-08-01T01:40:08;2.60;;;1.67;;
3949;SDS011;53057;50.988;6.314;2023-08-01T01:42:36;3.10;;;1.70;;
3949;SDS011;53057;50.988;6.314;2023-08-01T01:45:04;3.10;;;1.70;;
3949;SDS011;53057;50.988;6.314;2023-08-01T01:47:31;2.43;;;1.77;;
3949;SDS011;53057;50.988;6.314;2023-08-01T01:50:07;2.50;;;1.63;;
3949;SDS011;53057;50.988;6.314;2023-08-01T01:52:34;2.40;;;1.97;;
3949;SDS011;53057;50.988;6.314;2023-08-01T01:55:00;1.80;;;1.70;;
3949;SDS011;53057;50.988;6.314;2023-08-01T01:57:27;3.23;;;2.13;;
3949;SDS011;53057;50.988;6.314;2023-08-01T01:59:54;3.23;;;2.13;;
3949;SDS011;53057;50.988;6.314;2023-08-01T02:02:27;2.50;;;1.90;;
3949;SDS011;53057;50.988;6.314;2023-08-01T02:04:55;2.57;;;1.60;;
3949;SDS011;53057;50.988;6.314;2023-08-01T02:07:22;4.87;;;2.60;;
3949;SDS011;53057;50.988;6.314;2023-08-01T02:09:51;3.97;;;3.40;;
3949;SDS011;53057;50.988;6.314;2023-08-01T02:12:17;9.90;;;3.73;;
3949;SDS011;53057;50.988;6.314;2023-08-01T02:14:44;8.83;;;2.70;;
3949;SDS011;53057;50.988;6.314;2023-08-01T02:17:14;4.93;;;3.23;;
3949;SDS011;53057;50.988;6.314;2023-08-01T02:19:41;9.00;;;4.13;;
3949;SDS011;53057;50.988;6.314;2023-08-01T02:22:09;9.00;;;3.53;;
3949;SDS011;53057;50.988;6.314;2023-08-01T02:24:36;5.80;;;4.00;;
3949;SDS011;53057;50.988;6.314;2023-08-01T02:27:03;6.30;;;4.30;;
3949;SDS011;53057;50.988;6.314;2023-08-01T02:29:29;5.90;;;4.20;;
3949;SDS011;53057;50.988;6.314;2023-08-01T02:31:57;5.00;;;2.83;;
3949;SDS011;53057;50.988;6.314;2023-08-01T02:34:24;7.50;;;4.47;;
3949;SDS011;53057;50.988;6.314;2023-08-01T02:36:50;6.60;;;3.83;;
3949;SDS011;53057;50.988;6.314;2023-08-01T02:39:21;5.17;;;3.77;;
3949;SDS011;53057;50.988;6.314;2023-08-01T02:41:48;5.97;;;5.37;;
3949;SDS011;53057;50.988;6.314;2023-08-01T02:44:15;8.70;;;6.00;;
3949;SDS011;53057;50.988;6.314;2023-08-01T02:46:45;6.17;;;5.20;;
3949;SDS011;53057;50.988;6.314;2023-08-01T02:49:15;6.53;;;4.80;;
3949;SDS011;53057;50.988;6.314;2023-08-01T02:51:41;8.60;;;6.53;;
3949;SDS011;53057;50.988;6.314;2023-08-01T02:54:08;11.13;;;5.80;;
3949;SDS011;53057;50.988;6.314;2023-08-01T02:56:36;10.40;;;7.10;;
3949;SDS011;53057;50.988;6.314;2023-08-01T02:59:08;10.47;;;7.13;;
3949;SDS011;53057;50.988;6.314;2023-08-01T03:01:37;19.93;;;8.50;;
3949;SDS011;53057;50.988;6.314;2023-08-01T03:04:05;15.30;;;7.17;;
3949;SDS011;53057;50.988;6.314;2023-08-01T03:06:33;11.03;;;7.90;;
3949;SDS011;53057;50.988;6.314;2023-08-01T03:09:00;11.20;;;8.20;;
3949;SDS011;53057;50.988;6.314;2023-08-01T03:11:31;21.63;;;7.87;;
3949;SDS011;53057;50.988;6.314;2023-08-01T03:13:58;12.30;;;8.13;;
3949;SDS011;53057;50.988;6.314;2023-08-01T03:16:25;15.17;;;8.87;;
3949;SDS011;53057;50.988;6.314;2023-08-01T03:18:51;19.90;;;9.33;;
3949;SDS011;53057;50.988;6.314;2023-08-01T03:21:18;13.10;;;8.90;;
3949;SDS011;53057;50.988;6.314;2023-08-01T03:23:44;22.40;;;11.13;;
3949;SDS011;53057;50.988;6.314;2023-08-01T03:26:11;19.83;;;9.57;;
3949;SDS011;53057;50.988;6.314;2023-08-01T03:28:38;25.73;;;9.50;;
3949;SDS011;53057;50.988;6.314;2023-08-01T03:31:05;14.50;;;8.77;;
3949;SDS011;53057;50.988;6.314;2023-08-01T03:33:32;10.20;;;9.00;;
3949;SDS011;53057;50.988;6.314;2023-08-01T03:35:59;17.80;;;8.50;;
3949;SDS011;53057;50.988;6.314;2023-08-01T03:38:26;13.93;;;8.83;;
3949;SDS011;53057;50.988;6.314;2023-08-01T03:40:52;23.57;;;9.23;;
3949;SDS011;53057;50.988;6.314;2023-08-01T03:43:20;18.60;;;10.13;;
3949;SDS011;53057;50.988;6.314;2023-08-01T03:45:51;17.83;;;9.70;;
3949;SDS011;53057;50.988;6.314;2023-08-01T03:48:19;16.60;;;10.90;;
3949;SDS011;53057;50.988;6.314;2023-08-01T03:50:46;21.30;;;10.03;;
3949;SDS011;53057;50.988;6.314;2023-08-01T03:53:13;22.20;;;9.80;;
3949;SDS011;53057;50.988;6.314;2023-08-01T03:55:40;17.00;;;8.90;;
3949;SDS011;53057;50.988;6.314;2023-08-01T03:58:07;20.37;;;10.07;;
3949;SDS011;53057;50.988;6.314;2023-08-01T04:00:34;16.80;;;9.37;;
3949;SDS011;53057;50.988;6.314;2023-08-01T04:03:01;15.77;;;9.80;;
3949;SDS011;53057;50.988;6.314;2023-08-01T04:05:28;16.93;;;10.10;;
3949;SDS011;53057;50.988;6.314;2023-08-01T04:07:55;14.73;;;9.13;;
3949;SDS011;53057;50.988;6.314;2023-08-01T04:10:22;18.50;;;10.23;;
3949;SDS011;53057;50.988;6.314;2023-08-01T04:12:49;21.40;;;10.87;;
3949;SDS011;53057;50.988;6.314;2023-08-01T04:15:16;21.37;;;10.80;;
3949;SDS011;53057;50.988;6.314;2023-08-01T04:17:42;20.07;;;11.00;;
3949;SDS011;53057;50.988;6.314;2023-08-01T04:20:09;18.00;;;10.27;;
3949;SDS011;53057;50.988;6.314;2023-08-01T04:22:36;19.27;;;10.97;;
3949;SDS011;53057;50.988;6.314;2023-08-01T04:25:02;21.93;;;11.30;;
3949;SDS011;53057;50.988;6.314;2023-08-01T04:27:31;17.83;;;9.87;;
3949;SDS011;53057;50.988;6.314;2023-08-01T04:29:57;17.87;;;9.17;;
3949;SDS011;53057;50.988;6.314;2023-08-01T04:32:24;15.93;;;9.93;;
3949;SDS011;53057;50.988;6.314;2023-08-01T04:34:51;14.03;;;9.40;;
3949;SDS011;53057;50.988;6.314;2023-08-01T04:37:18;15.00;;;9.20;;
3949;SDS011;53057;50.988;6.314;2023-08-01T04:39:47;15.40;;;8.80;;
3949;SDS011;53057;50.988;6.314;2023-08-01T04:42:13;18.10;;;9.17;;
3949;SDS011;53057;50.988;6.314;2023-08-01T04:44:40;15.63;;;8.23;;
3949;SDS011;53057;50.988;6.314;2023-08-01T04:47:07;22.10;;;10.57;;
3949;SDS011;53057;50.988;6.314;2023-08-01T04:49:33;22.23;;;9.30;;
3949;SDS011;53057;50.988;6.314;2023-08-01T04:52:00;20.00;;;8.90;;
3949;SDS011;53057;50.988;6.314;2023-08-01T04:54:26;14.47;;;8.80;;
3949;SDS011;53057;50.988;6.314;2023-08-01T04:56:53;17.67;;;9.30;;
3949;SDS011;53057;50.988;6.314;2023-08-01T04:59:20;20.63;;;10.50;;
3949;SDS011;53057;50.988;6.314;2023-08-01T05:01:46;17.70;;;10.00;;
3949;SDS011;53057;50.988;6.314;2023-08-01T05:04:13;19.37;;;10.30;;
3949;SDS011;53057;50.988;6.314;2023-08-01T05:06:39;30.97;;;9.90;;
3949;SDS011;53057;50.988;6.314;2023-08-01T05:09:07;16.80;;;8.90;;
3949;SDS011;53057;50.988;6.314;2023-08-01T05:11:34;21.47;;;10.77;;
3949;SDS011;53057;50.988;6.314;2023-08-01T05:14:00;16.10;;;9.37;;
3949;SDS011;53057;50.988;6.314;2023-08-01T05:16:27;18.43;;;9.70;;
3949;SDS011;53057;50.988;6.314;2023-08-01T05:18:54;15.20;;;7.10;;
3949;SDS011;53057;50.988;6.314;2023-08-01T05:21:20;17.03;;;8.10;;
3949;SDS011;53057;50.988;6.314;2023-08-01T05:23:47;14.87;;;8.97;;
3949;SDS011;53057;50.988;6.314;2023-08-01T05:26:14;14.03;;;8.13;;
3949;SDS011;53057;50.988;6.314;2023-08-01T05:28:41;15.17;;;9.00;;
3949;SDS011;53057;50.988;6.314;2023-08-01T05:31:07;18.67;;;8.53;;
3949;SDS011;53057;50.988;6.314;2023-08-01T05:33:34;12.53;;;8.17;;
3949;SDS011;53057;50.988;6.314;2023-08-01T05:36:01;16.63;;;9.17;;
3949;SDS011;53057;50.988;6.314;2023-08-01T05:38:27;13.60;;;8.83;;
3949;SDS011;53057;50.988;6.314;2023-08-01T05:40:54;16.60;;;8.80;;
3949;SDS011;53057;50.988;6.314;2023-08-01T05:43:21;14.10;;;7.43;;
3949;SDS011;53057;50.988;6.314;2023-08-01T05:45:47;14.37;;;7.90;;
3949;SDS011;53057;50.988;6.314;2023-08-01T05:48:17;19.43;;;8.53;;
3949;SDS011;53057;50.988;6.314;2023-08-01T05:50:43;16.03;;;7.90;;
3949;SDS011;53057;50.988;6.314;2023-08-01T05:53:10;19.50;;;8.03;;
3949;SDS011;53057;50.988;6.314;2023-08-01T05:55:37;19.73;;;8.27;;
3949;SDS011;53057;50.988;6.314;2023-08-01T05:58:05;22.03;;;8.83;;
3949;SDS011;53057;50.988;6.314;2023-08-01T06:00:31;12.10;;;6.77;;
3949;SDS011;53057;50.988;6.314;2023-08-01T06:02:58;15.53;;;7.43;;
3949;SDS011;53057;50.988;6.314;2023-08-01T06:05:25;23.63;;;8.60;;
3949;SDS011;53057;50.988;6.314;2023-08-01T06:07:51;17.07;;;8.87;;
3949;SDS011;53057;50.988;6.314;2023-08-01T06:10:18;18.23;;;8.37;;
3949;SDS011;53057;50.988;6.314;2023-08-01T06:12:44;16.67;;;8.90;;
3949;SDS011;53057;50.988;6.314;2023-08-01T06:15:11;13.10;;;7.20;;
3949;SDS011;53057;50.988;6.314;2023-08-01T06:17:38;23.40;;;9.13;;
3949;SDS011;53057;50.988;6.314;2023-08-01T06:20:04;23.83;;;9.10;;
3949;SDS011;53057;50.988;6.314;2023-08-01T06:22:31;16.87;;;9.20;;
3949;SDS011;53057;50.988;6.314;2023-08-01T06:24:58;19.70;;;8.77;;
3949;SDS011;53057;50.988;6.314;2023-08-01T06:27:25;18.23;;;10.17;;
3949;SDS011;53057;50.988;6.314;2023-08-01T06:29:51;20.73;;;9.47;;
3949;SDS011;53057;50.988;6.314;2023-08-01T06:32:18;13.93;;;7.60;;
3949;SDS011;53057;50.988;6.314;2023-08-01T06:34:45;20.87;;;9.90;;
3949;SDS011;53057;50.988;6.314;2023-08-01T06:37:11;18.80;;;8.30;;
3949;SDS011;53057;50.988;6.314;2023-08-01T06:39:38;17.17;;;9.57;;
3949;SDS011;53057;50.988;6.314;2023-08-01T06:42:05;20.10;;;8.50;;
3949;SDS011;53057;50.988;6.314;2023-08-01T06:44:31;14.90;;;8.10;;
3949;SDS011;53057;50.988;6.314;2023-08-01T06:46:58;15.60;;;9.50;;
3949;SDS011;53057;50.988;6.314;2023-08-01T06:49:25;15.80;;;8.37;;
3949;SDS011;53057;50.988;6.314;2023-08-01T06:51:51;14.80;;;8.10;;
3949;SDS011;53057;50.988;6.314;2023-08-01T06:54:18;13.67;;;7.53;;
3949;SDS011;53057;50.988;6.314;2023-08-01T06:56:45;14.63;;;7.80;;
3949;SDS011;53057;50.988;6.314;2023-08-01T06:59:14;39.57;;;9.93;;
3949;SDS011;53057;50.988;6.314;2023-08-01T07:01:42;11.70;;;6.33;;
3949;SDS011;53057;50.988;6.314;2023-08-01T07:04:10;10.77;;;6.57;;
3949;SDS011;53057;50.988;6.314;2023-08-01T07:06:37;14.97;;;6.67;;
3949;SDS011;53057;50.988;6.314;2023-08-01T07:09:04;14.10;;;5.83;;
3949;SDS011;53057;50.988;6.314;2023-08-01T07:11:31;10.43;;;5.23;;
3949;SDS011;53057;50.988;6.314;2023-08-01T07:13:58;12.53;;;5.83;;
3949;SDS011;53057;50.988;6.314;2023-08-01T07:16:25;17.00;;;6.50;;
3949;SDS011;53057;50.988;6.314;2023-08-01T07:18:51;21.57;;;6.33;;
3949;SDS011;53057;50.988;6.314;2023-08-01T07:21:18;7.47;;;5.53;;
3949;SDS011;53057;50.988;6.314;2023-08-01T07:23:45;12.13;;;5.90;;
3949;SDS011;53057;50.988;6.314;2023-08-01T07:26:11;13.13;;;7.10;;
3949;SDS011;53057;50.988;6.314;2023-08-01T07:28:41;12.93;;;6.83;;
3949;SDS011;53057;50.988;6.314;2023-08-01T07:31:08;9.63;;;6.20;;
3949;SDS011;53057;50.988;6.314;2023-08-01T07:33:35;14.20;;;6.27;;
3949;SDS011;53057;50.988;6.314;2023-08-01T07:36:02;14.80;;;6.87;;
3949;SDS011;53057;50.988;6.314;2023-08-01T07:38:29;20.33;;;7.40;;
3949;SDS011;53057;50.988;6.314;2023-08-01T07:41:01;16.23;;;7.17;;
3949;SDS011;53057;50.988;6.314;2023-08-01T07:43:28;14.30;;;7.40;;
3949;SDS011;53057;50.988;6.314;2023-08-01T07:45:55;17.97;;;6.53;;
3949;SDS011;53057;50.988;6.314;2023-08-01T07:48:23;12.83;;;6.57;;
3949;SDS011;53057;50.988;6.314;2023-08-01T07:50:49;19.70;;;7.10;;
3949;SDS011;53057;50.988;6.314;2023-08-01T07:53:16;14.80;;;6.50;;
3949;SDS011;53057;50.988;6.314;2023-08-01T07:55:42;13.50;;;5.63;;
3949;SDS011;53057;50.988;6.314;2023-08-01T07:58:09;15.27;;;6.60;;
3949;SDS011;53057;50.988;6.314;2023-08-01T08:00:36;16.47;;;6.00;;
3949;SDS011;53057;50.988;6.314;2023-08-01T08:03:02;10.83;;;6.07;;
3949;SDS011;53057;50.988;6.314;2023-08-01T08:05:29;13.47;;;6.20;;
3949;SDS011;53057;50.988;6.314;2023-08-01T08:07:56;12.97;;;5.73;;
3949;SDS011;53057;50.988;6.314;2023-08-01T08:10:22;18.40;;;5.80;;
3949;SDS011;53057;50.988;6.314;2023-08-01T08:12:49;12.10;;;6.67;;
3949;SDS011;53057;50.988;6.314;2023-08-01T08:15:16;11.70;;;6.30;;
3949;SDS011;53057;50.988;6.314;2023-08-01T08:17:43;12.03;;;5.63;;
3949;SDS011;53057;50.988;6.314;2023-08-01T08:20:09;14.80;;;6.27;;
3949;SDS011;53057;50.988;6.314;2023-08-01T08:22:36;74.13;;;7.73;;
3949;SDS011;53057;50.988;6.314;2023-08-01T08:25:03;7.23;;;4.43;;
3949;SDS011;53057;50.988;6.314;2023-08-01T08:27:29;11.00;;;5.67;;
3949;SDS011;53057;50.988;6.314;2023-08-01T08:29:56;11.80;;;5.43;;
3949;SDS011;53057;50.988;6.314;2023-08-01T08:32:23;8.17;;;4.80;;
3949;SDS011;53057;50.988;6.314;2023-08-01T08:34:51;9.93;;;5.20;;
3949;SDS011;53057;50.988;6.314;2023-08-01T08:37:18;20.07;;;5.93;;
3949;SDS011;53057;50.988;6.314;2023-08-01T08:39:45;12.77;;;5.40;;
3949;SDS011;53057;50.988;6.314;2023-08-01T08:42:13;13.53;;;5.33;;
3949;SDS011;53057;50.988;6.314;2023-08-01T08:44:43;13.83;;;5.67;;
3949;SDS011;53057;50.988;6.314;2023-08-01T08:47:10;11.37;;;6.10;;
3949;SDS011;53057;50.988;6.314;2023-08-01T08:49:37;14.37;;;6.80;;
3949;SDS011;53057;50.988;6.314;2023-08-01T08:52:05;16.10;;;6.10;;
3949;SDS011;53057;50.988;6.314;2023-08-01T08:54:32;14.67;;;5.90;;
3949;SDS011;53057;50.988;6.314;2023-08-01T08:56:59;17.07;;;6.77;;
3949;SDS011;53057;50.988;6.314;2023-08-01T08:59:26;12.50;;;5.50;;
3949;SDS011;53057;50.988;6.314;2023-08-01T09:01:53;6.40;;;5.17;;
3949;SDS011;53057;50.988;6.314;2023-08-01T09:04:20;10.00;;;5.50;;
3949;SDS011;53057;50.988;6.314;2023-08-01T09:06:48;8.07;;;4.80;;
3949;SDS011;53057;50.988;6.314;2023-08-01T09:09:17;7.20;;;5.27;;
3949;SDS011;53057;50.988;6.314;2023-08-01T09:11:46;12.17;;;5.73;;
3949;SDS011;53057;50.988;6.314;2023-08-01T09:14:13;11.00;;;4.27;;
3949;SDS011;53057;50.988;6.314;2023-08-01T09:16:40;9.90;;;3.87;;
3949;SDS011;53057;50.988;6.314;2023-08-01T09:19:08;7.30;;;4.33;;
3949;SDS011;53057;50.988;6.314;2023-08-01T09:21:35;9.23;;;4.30;;
3949;SDS011;53057;50.988;6.314;2023-08-01T09:24:11;10.87;;;4.57;;
3949;SDS011;53057;50.988;6.314;2023-08-01T09:26:38;8.93;;;4.80;;
3949;SDS011;53057;50.988;6.314;2023-08-01T09:29:05;8.30;;;4.27;;
3949;SDS011;53057;50.988;6.314;2023-08-01T09:31:32;9.00;;;4.40;;
3949;SDS011;53057;50.988;6.314;2023-08-01T09:34:00;6.57;;;4.07;;
3949;SDS011;53057;50.988;6.314;2023-08-01T09:36:27;8.33;;;4.00;;
3949;SDS011;53057;50.988;6.314;2023-08-01T09:38:57;8.57;;;4.17;;
3949;SDS011;53057;50.988;6.314;2023-08-01T09:41:25;8.70;;;4.40;;
3949;SDS011;53057;50.988;6.314;2023-08-01T09:43:52;15.53;;;3.97;;
3949;SDS011;53057;50.988;6.314;2023-08-01T09:46:18;6.93;;;4.50;;
3949;SDS011;53057;50.988;6.314;2023-08-01T09:48:45;7.50;;;4.23;;
3949;SDS011;53057;50.988;6.314;2023-08-01T09:51:13;8.37;;;3.73;;
3949;SDS011;53057;50.988;6.314;2023-08-01T09:56:14;7.33;;;4.27;;
3949;SDS011;53057;50.988;6.314;2023-08-01T09:58:43;5.93;;;3.80;;
3949;SDS011;53057;50.988;6.314;2023-08-01T10:01:10;4.47;;;3.67;;
3949;SDS011;53057;50.988;6.314;2023-08-01T10:03:37;8.87;;;4.43;;
3949;SDS011;53057;50.988;6.314;2023-08-01T10:06:04;5.73;;;3.70;;
3949;SDS011;53057;50.988;6.314;2023-08-01T10:08:31;5.67;;;3.30;;
3949;SDS011;53057;50.988;6.314;2023-08-01T10:11:00;6.10;;;3.07;;
3949;SDS011;53057;50.988;6.314;2023-08-01T10:13:29;5.63;;;3.40;;
3949;SDS011;53057;50.988;6.314;2023-08-01T10:15:57;6.33;;;2.67;;
3949;SDS011;53057;50.988;6.314;2023-08-01T10:18:24;3.90;;;2.77;;
3949;SDS011;53057;50.988;6.314;2023-08-01T10:20:51;7.30;;;4.00;;
3949;SDS011;53057;50.988;6.314;2023-08-01T10:23:18;3.80;;;2.77;;
3949;SDS011;53057;50.988;6.314;2023-08-01T10:25:45;4.17;;;3.37;;
3949;SDS011;53057;50.988;6.314;2023-08-01T10:28:12;12.50;;;3.20;;
3949;SDS011;53057;50.988;6.314;2023-08-01T10:30:39;7.23;;;3.07;;
3949;SDS011;53057;50.988;6.314;2023-08-01T10:33:05;7.93;;;3.57;;
3949;SDS011;53057;50.988;6.314;2023-08-01T10:35:35;13.43;;;3.30;;
3949;SDS011;53057;50.988;6.314;2023-08-01T10:38:03;8.83;;;3.37;;
3949;SDS011;53057;50.988;6.314;2023-08-01T10:40:40;4.10;;;2.23;;
3949;SDS011;53057;50.988;6.314;2023-08-01T10:43:23;6.33;;;2.70;;
3949;SDS011;53057;50.988;6.314;2023-08-01T10:46:03;4.90;;;2.73;;
3949;SDS011;53057;50.988;6.314;2023-08-01T10:48:30;3.23;;;2.30;;
3949;SDS011;53057;50.988;6.314;2023-08-01T10:50:57;4.90;;;3.10;;
3949;SDS011;53057;50.988;6.314;2023-08-01T10:53:24;8.70;;;3.20;;
3949;SDS011;53057;50.988;6.314;2023-08-01T10:55:51;4.17;;;2.13;;
3949;SDS011;53057;50.988;6.314;2023-08-01T10:58:18;7.00;;;3.33;;
3949;SDS011;53057;50.988;6.314;2023-08-01T11:00:44;6.30;;;3.07;;
3949;SDS011;53057;50.988;6.314;2023-08-01T11:03:11;3.50;;;2.40;;
3949;SDS011;53057;50.988;6.314;2023-08-01T11:05:38;7.13;;;3.57;;
3949;SDS011;53057;50.988;6.314;2023-08-01T11:08:05;8.63;;;2.90;;
3949;SDS011;53057;50.988;6.314;2023-08-01T11:10:32;4.47;;;2.93;;
3949;SDS011;53057;50.988;6.314;2023-08-01T11:12:59;6.60;;;3.57;;
3949;SDS011;53057;50.988;6.314;2023-08-01T11:15:26;6.33;;;2.73;;
3949;SDS011;53057;50.988;6.314;2023-08-01T11:17:53;16.63;;;3.73;;
3949;SDS011;53057;50.988;6.314;2023-08-01T11:20:21;9.70;;;3.00;;
3949;SDS011;53057;50.988;6.314;2023-08-01T11:22:53;5.43;;;3.00;;
3949;SDS011;53057;50.988;6.314;2023-08-01T11:25:30;6.47;;;2.37;;
3949;SDS011;53057;50.988;6.314;2023-08-01T11:28:00;3.83;;;1.87;;
3949;SDS011;53057;50.988;6.314;2023-08-01T11:30:31;6.17;;;2.80;;
3949;SDS011;53057;50.988;6.314;2023-08-01T11:32:58;4.47;;;2.40;;
3949;SDS011;53057;50.988;6.314;2023-08-01T11:35:25;10.40;;;2.97;;
3949;SDS011;53057;50.988;6.314;2023-08-01T11:37:52;3.03;;;2.10;;
3949;SDS011;53057;50.988;6.314;2023-08-01T11:40:18;6.67;;;3.73;;
3949;SDS011;53057;50.988;6.314;2023-08-01T11:42:49;4.50;;;2.63;;
3949;SDS011;53057;50.988;6.314;2023-08-01T11:45:17;5.90;;;2.00;;
3949;SDS011;53057;50.988;6.314;2023-08-01T11:47:44;5.03;;;3.30;;
3949;SDS011;53057;50.988;6.314;2023-08-01T11:50:12;2.73;;;1.93;;
3949;SDS011;53057;50.988;6.314;2023-08-01T11:52:39;6.13;;;2.60;;
3949;SDS011;53057;50.988;6.314;2023-08-01T11:55:05;3.63;;;2.37;;
3949;SDS011;53057;50.988;6.314;2023-08-01T11:57:32;2.70;;;1.93;;
3949;SDS011;53057;50.988;6.314;2023-08-01T11:59:59;3.83;;;2.10;;
3949;SDS011;53057;50.988;6.314;2023-08-01T12:02:26;2.90;;;1.73;;
3949;SDS011;53057;50.988;6.314;2023-08-01T12:04:53;3.83;;;1.80;;
3949;SDS011;53057;50.988;6.314;2023-08-01T12:07:20;4.03;;;1.70;;
3949;SDS011;53057;50.988;6.314;2023-08-01T12:09:56;8.77;;;2.43;;
3949;SDS011;53057;50.988;6.314;2023-08-01T12:12:23;4.90;;;2.37;;
3949;SDS011;53057;50.988;6.314;2023-08-01T12:14:50;7.13;;;2.60;;
3949;SDS011;53057;50.988;6.314;2023-08-01T12:17:17;8.00;;;2.23;;
3949;SDS011;53057;50.988;6.314;2023-08-01T12:19:43;3.30;;;2.00;;
3949;SDS011;53057;50.988;6.314;2023-08-01T12:22:10;10.47;;;3.07;;
3949;SDS011;53057;50.988;6.314;2023-08-01T12:24:36;9.40;;;2.40;;
3949;SDS011;53057;50.988;6.314;2023-08-01T12:27:09;4.67;;;1.90;;
3949;SDS011;53057;50.988;6.314;2023-08-01T12:29:36;9.53;;;2.53;;
3949;SDS011;53057;50.988;6.314;2023-08-01T12:32:03;6.20;;;2.10;;
3949;SDS011;53057;50.988;6.314;2023-08-01T12:34:30;7.10;;;3.10;;
3949;SDS011;53057;50.988;6.314;2023-08-01T12:36:57;4.70;;;2.23;;
3949;SDS011;53057;50.988;6.314;2023-08-01T12:39:23;8.13;;;2.20;;
3949;SDS011;53057;50.988;6.314;2023-08-01T12:41:53;3.60;;;2.57;;
3949;SDS011;53057;50.988;6.314;2023-08-01T12:44:20;9.13;;;2.70;;
3949;SDS011;53057;50.988;6.314;2023-08-01T12:46:47;4.87;;;2.27;;
3949;SDS011;53057;50.988;6.314;2023-08-01T12:49:14;5.83;;;2.87;;
3949;SDS011;53057;50.988;6.314;2023-08-01T12:51:41;4.83;;;2.27;;
3949;SDS011;53057;50.988;6.314;2023-08-01T12:54:08;12.33;;;3.00;;
3949;SDS011;53057;50.988;6.314;2023-08-01T12:56:34;4.80;;;2.60;;
3949;SDS011;53057;50.988;6.314;2023-08-01T12:59:01;3.77;;;2.00;;
3949;SDS011;53057;50.988;6.314;2023-08-01T13:01:28;7.70;;;2.53;;
3949;SDS011;53057;50.988;6.314;2023-08-01T13:03:55;6.87;;;2.77;;
3949;SDS011;53057;50.988;6.314;2023-08-01T13:06:21;3.97;;;2.50;;
3949;SDS011;53057;50.988;6.314;2023-08-01T13:08:48;7.30;;;2.73;;
3949;SDS011;53057;50.988;6.314;2023-08-01T13:11:15;12.00;;;3.77;;
3949;SDS011;53057;50.988;6.314;2023-08-01T13:13:41;5.07;;;2.77;;
3949;SDS011;53057;50.988;6.314;2023-08-01T13:16:08;12.30;;;2.63;;
3949;SDS011;53057;50.988;6.314;2023-08-01T13:18:35;5.73;;;2.30;;
3949;SDS011;53057;50.988;6.314;2023-08-01T13:21:02;9.30;;;2.83;;
3949;SDS011;53057;50.988;6.314;2023-08-01T13:23:29;5.50;;;3.00;;
3949;SDS011;53057;50.988;6.314;2023-08-01T13:25:56;6.77;;;3.33;;
3949;SDS011;53057;50.988;6.314;2023-08-01T13:28:25;5.67;;;2.90;;
3949;SDS011;53057;50.988;6.314;2023-08-01T13:30:51;7.60;;;4.00;;
3949;SDS011;53057;50.988;6.314;2023-08-01T13:33:18;9.43;;;2.87;;
3949;SDS011;53057;50.988;6.314;2023-08-01T13:35:45;9.93;;;3.30;;
3949;SDS011;53057;50.988;6.314;2023-08-01T13:38:12;2.83;;;2.50;;
3949;SDS011;53057;50.988;6.314;2023-08-01T13:40:40;9.03;;;4.43;;
3949;SDS011;53057;50.988;6.314;2023-08-01T13:43:07;6.50;;;3.63;;
3949;SDS011;53057;50.988;6.314;2023-08-01T13:45:33;4.13;;;3.73;;
3949;SDS011;53057;50.988;6.314;2023-08-01T13:48:01;7.40;;;2.90;;
3949;SDS011;53057;50.988;6.314;2023-08-01T13:50:28;5.20;;;3.10;;
3949;SDS011;53057;50.988;6.314;2023-08-01T13:52:55;8.30;;;3.80;;
3949;SDS011;53057;50.988;6.314;2023-08-01T13:55:21;8.40;;;4.20;;
3949;SDS011;53057;50.988;6.314;2023-08-01T13:57:48;9.03;;;3.83;;
3949;SDS011;53057;50.988;6.314;2023-08-01T14:00:15;7.73;;;3.40;;
3949;SDS011;53057;50.988;6.314;2023-08-01T14:02:42;3.43;;;2.10;;
3949;SDS011;53057;50.988;6.314;2023-08-01T14:05:09;4.13;;;2.60;;
3949;SDS011;53057;50.988;6.314;2023-08-01T14:07:36;8.00;;;2.90;;
3949;SDS011;53057;50.988;6.314;2023-08-01T14:10:09;4.50;;;2.87;;
3949;SDS011;53057;50.988;6.314;2023-08-01T14:12:36;7.63;;;2.37;;
3949;SDS011;53057;50.988;6.314;2023-08-01T14:15:02;5.27;;;2.33;;
3949;SDS011;53057;50.988;6.314;2023-08-01T14:17:29;7.40;;;2.40;;
3949;SDS011;53057;50.988;6.314;2023-08-01T14:19:56;5.13;;;2.23;;
3949;SDS011;53057;50.988;6.314;2023-08-01T14:22:23;5.57;;;2.77;;
3949;SDS011;53057;50.988;6.314;2023-08-01T14:24:50;5.77;;;1.73;;
3949;SDS011;53057;50.988;6.314;2023-08-01T14:27:16;2.60;;;2.07;;
3949;SDS011;53057;50.988;6.314;2023-08-01T14:29:43;4.00;;;2.50;;
3949;SDS011;53057;50.988;6.314;2023-08-01T14:32:10;2.77;;;1.90;;
3949;SDS011;53057;50.988;6.314;2023-08-01T14:34:36;10.70;;;2.47;;
3949;SDS011;53057;50.988;6.314;2023-08-01T14:37:04;5.20;;;2.03;;
3949;SDS011;53057;50.988;6.314;2023-08-01T14:39:31;1.87;;;1.63;;
3949;SDS011;53057;50.988;6.314;2023-08-01T14:41:57;4.73;;;2.03;;
3949;SDS011;53057;50.988;6.314;2023-08-01T14:44:27;2.97;;;1.40;;
3949;SDS011;53057;50.988;6.314;2023-08-01T14:46:54;3.63;;;2.00;;
3949;SDS011;53057;50.988;6.314;2023-08-01T14:49:21;8.30;;;2.03;;
3949;SDS011;53057;50.988;6.314;2023-08-01T14:51:48;8.43;;;1.93;;
3949;SDS011;53057;50.988;6.314;2023-08-01T14:54:16;4.13;;;1.50;;
3949;SDS011;53057;50.988;6.314;2023-08-01T14:56:59;4.50;;;2.60;;
3949;SDS011;53057;50.988;6.314;2023-08-01T14:59:25;5.07;;;1.80;;